Airfield :
LOGIN :

Register | Disclaimer

   EN    FR    IT 

 










Legend :    VFR   Marginal VFR   IFR   Intensive IFR   Very Intensive IFR
Visi :
Ceiling :
>= 8 km
>= 3000ft
5 to 8 km
1000 to 3000 ft
1500m to 5 km
500 to 1000 ft
800 to 1500m
200 to 500 ft
< 800m
< 200 ft
Symbols :   Thunderstorms  Fog  Heavy snow  Heavy precipitations  Wind > 20 kt
SIGMETs :     Misc.  Thunderstorms  Icing  Turbulence  Mountain Waves  Volcanic Ashes






- Airport Elevation : 86 ft
- IATA code : HAU


ENHD - Haugesund

CURRENT METAR :
  • 272320Z AUTO 16013KT 9999 FEW006/// SCT013/// BKN022/// 02/00 Q0996

EXPIRED METARs :
  • 272250Z AUTO 16013KT 9999 -RA ///022/// 01/M00 Q0995
  • 272220Z AUTO 16013KT 9999 DZ FEW009/// BKN013/// BKN027/// 02/00 Q0995
  • 272150Z AUTO 16013KT 9999 -SN VV014 02/M00 Q0995
  • 272120Z AUTO 15014KT 9999 -RASN VV015 02/M00 Q0995
  • 272050Z 15012KT 9999 SCT017 SCT080 02/M00 Q0995

Expired Forecast.



MET'MAP, your aeronautical weather chart ! - Copyright ORBIFLY December 2007 - Disclaimer

ORBIFLY MET'MAP TEAM :

Programming & Development : Alexandra Zaïnal
Concept & original design : Baudouin d'Aumeries
Assistance for programming : Marc-Olivier Méhu
Technical & hardware support : Manuel Goepfert

Contact : metmap@orbifly.com




SOURCES & CREDITS :

   NOAA